• Join FlightAware (Why Join?)
  • Login
  • US Flag 
02:13AM EDT


 

Airport Tracker/Info


-or-


 

Live Flight TrackerFlight Track Log ✈ SWA2383 ✈ 27-Apr-2013 ✈ KMCI - KSTL

Flight Track Log - Related Links

Times and Time Zones

All times are in EDT time to prevent confusion due to time zone crossing. See the SWA2383 flight status page for this flight to view local times or setup timezone preferences in your user account.

Time Position Orientation Groundspeed Altitude Reporting Facility
EDT Latitude Longitude Course Direction KTS MPH feet Rate Location/Type
11:43AM 39.3167 -94.7167 27° Northeast 145 167 1,900  Level Kansas City TRACON
11:44AM 39.3667 -94.6833 27° Northeast 211 243 4,300 2,400 Climbing Kansas City TRACON
11:44AM 39.3600 -94.6367 100° East 223 257 5,800 3,360 Climbing Kansas City Center
11:45AM 39.3347 -94.5511 111° Southeast 275 316 9,600 3,360 Climbing Kansas City Center
11:46AM 39.2850 -94.4642 126° Southeast 317 365 12,700 3,480 Climbing Kansas City Center
11:47AM 39.2208 -94.3500 126° Southeast 349 402 16,800 3,360 Climbing Kansas City Center
11:48AM 39.1622 -94.2461 126° Southeast 372 428 19,600 2,940 Climbing Kansas City Center
11:49AM 39.0956 -94.1164 123° Southeast 390 449 22,900 2,940 Climbing Kansas City Center
11:50AM 39.0856 -93.9783 95° East 404 465 25,700 2,820 Climbing Kansas City Center
11:51AM 39.0758 -93.8439 95° East 398 458 28,800 1,560 Climbing Kansas City Center
11:53AM 39.0664 -93.6828 94° East 406 467 29,000  Climbing Kansas City Center
11:54AM 39.0572 -93.5428 95° East 410 472 28,900 -540 Descending Kansas City Center
11:55AM 39.0489 -93.4033 94° East 411 473 27,900 -960 Descending Kansas City Center
11:56AM 39.0367 -93.2300 95° East 411 473 27,000 -480 Descending Kansas City Center
11:57AM 39.0267 -93.0897 95° East 402 463 27,000  Level Kansas City Center
11:58AM 39.0158 -92.9486 96° East 401 461 27,000  Level Kansas City Center
11:59AM 38.9956 -92.8056 100° East 402 463 27,000  Level Kansas City Center
12:00PM 38.9536 -92.6736 112° Southeast 398 458 27,000  Level Kansas City Center
12:01PM 38.9128 -92.5403 111° Southeast 399 459 27,000 -360 Level Kansas City Center
12:02PM 38.8708 -92.4078 112° Southeast 399 459 26,300 -840 Descending Kansas City Center
12:03PM 38.8306 -92.2750 111° Southeast 397 457 25,300 -1,080 Descending Kansas City Center
12:04PM 38.7856 -92.1142 110° East 397 457 24,200 -1,080 Descending Kansas City Center
12:05PM 38.7506 -91.9758 108° East 402 463 23,200 -1,440 Descending Kansas City Center
12:06PM 38.7161 -91.8367 108° East 405 466 21,300 -2,100 Descending Kansas City Center
12:07PM 38.6922 -91.7003 103° East 398 458 19,000 -2,160 Descending Kansas City Center
12:08PM 38.6928 -91.5586 90° East 394 453 16,900 -2,100 Descending Kansas City Center
12:09PM 38.6933 -91.4219 90° East 387 445 14,700 -2,160 Descending Kansas City Center
12:10PM 38.6944 -91.2944 89° East 359 413 12,500 -2,100 Descending Kansas City Center
12:11PM 38.6931 -91.1719 91° East 347 399 10,500 -1,320 Descending Kansas City Center
12:12PM 38.7122 -91.0658 77° East 317 365 9,900 -1,020 Descending Kansas City Center
12:13PM 38.7525 -90.9767 60° Northeast 296 341 8,500 -1,200 Descending Kansas City Center
12:14PM 38.7925 -90.8906 59° Northeast 288 331 7,500 -1,020 Descending Kansas City Center
12:15PM 38.8308 -90.8072 59° Northeast 280 322 6,500 -1,020 Descending Kansas City Center
12:16PM 38.8672 -90.7256 60° Northeast 271 312 5,500 -1,200 Descending Kansas City Center
12:17PM 38.8744 -90.6244 85° East 252 290 4,100 -960 Descending Kansas City Center
12:18PM 38.8411 -90.5578 123° Southeast 233 268 3,600 -660 Descending Kansas City Center
12:19PM 38.8136 -90.5014 122° Southeast 209 241 2,800 -840 Descending Kansas City Center
12:20PM 38.7919 -90.4569 122° Southeast 176 203 2,000 -780 Descending Kansas City Center
12:21PM 38.7747 -90.4203 121° Southeast 140 161 1,300 -660 Descending Kansas City Center
12:22PM 38.7561 -90.3822 122° Southeast 129 148 700 -600 Descending Kansas City Center
12:24PM 38.7487 -90.3700 125° Southeast  Level Estimated
12:31PM 38.7487 -90.3700 125° Southeast  Level Estimated